Time;durP1;ratioP1;P1;durP2;ratioP2;P2;SDS_P1;SDS_P2;PMS_P1;PMS_P2;Temp;Humidity;BMP_temperature;BMP_pressure;BME280_temperature;BME280_humidity;BME280_pressure;Samples;Min_cycle;Max_cycle;Signal;HPM_P1;HPM_P2
2021/09/24 00:00:45;;;;;;;26.80;10.60;;;;;;;8.69;83.23;98827.00;5072577;28;20702;-78
2021/09/24 00:03:11;;;;;;;23.95;10.93;;;;;;;8.71;83.24;98822.41;5073603;28;20540;-81
2021/09/24 00:05:37;;;;;;;24.98;10.57;;;;;;;8.67;83.13;98827.13;5039666;28;20040;-83
2021/09/24 00:08:03;;;;;;;24.92;9.88;;;;;;;8.68;82.92;98822.69;5072793;28;20037;-81
2021/09/24 00:10:28;;;;;;;30.67;11.85;;;;;;;8.73;82.98;98826.63;5073710;28;20024;-77
2021/09/24 00:12:54;;;;;;;24.80;11.77;;;;;;;8.69;82.84;98819.91;5055496;28;20354;-77
2021/09/24 00:15:20;;;;;;;23.98;10.38;;;;;;;8.66;83.14;98824.59;5073810;28;20036;-79
2021/09/24 00:17:46;;;;;;;25.50;10.93;;;;;;;8.62;82.63;98817.94;5073486;28;20356;-79
2021/09/24 00:20:12;;;;;;;21.10;10.20;;;;;;;8.50;83.02;98814.50;5073520;28;20078;-77
2021/09/24 00:22:40;;;;;;;22.83;10.88;;;;;;;8.60;83.16;98819.84;5055520;28;20086;-80
2021/09/24 00:25:06;;;;;;;25.08;10.40;;;;;;;8.65;83.04;98812.38;5057323;28;20576;-79
2021/09/24 00:27:33;;;;;;;23.25;9.32;;;;;;;8.73;82.76;98820.50;5074193;28;20416;-80
2021/09/24 00:30:03;;;;;;;23.17;9.18;;;;;;;8.72;82.69;98818.81;5092059;28;20048;-77
2021/09/24 00:32:29;;;;;;;23.00;10.07;;;;;;;8.71;82.58;98823.28;5092994;28;20536;-80
2021/09/24 00:34:55;;;;;;;24.27;10.85;;;;;;;8.74;82.32;98816.91;5093872;28;20123;-79
2021/09/24 00:37:23;;;;;;;23.05;10.05;;;;;;;8.68;82.32;98809.50;5093200;28;20044;-79
2021/09/24 00:39:49;;;;;;;23.80;10.50;;;;;;;8.71;82.53;98817.16;5093585;28;20039;-79
2021/09/24 00:42:15;;;;;;;23.60;9.82;;;;;;;8.66;82.03;98819.34;5074916;28;20522;-79
2021/09/24 00:44:47;;;;;;;19.65;8.82;;;;;;;8.63;81.75;98817.78;5093336;28;20039;-80
2021/09/24 00:47:15;;;;;;;20.23;9.02;;;;;;;8.58;81.35;98809.44;5091792;28;20036;-77
2021/09/24 00:49:41;;;;;;;21.33;8.80;;;;;;;8.61;82.15;98800.44;5058513;28;20031;-80
2021/09/24 00:52:07;;;;;;;19.02;8.48;;;;;;;8.58;82.26;98807.66;5075676;28;20349;-81
2021/09/24 00:54:33;;;;;;;20.15;9.05;;;;;;;8.56;82.00;98804.31;5092443;28;20048;-81
2021/09/24 00:57:00;;;;;;;19.30;9.18;;;;;;;8.54;81.89;98800.13;5075733;28;20032;-79
2021/09/24 00:59:26;;;;;;;19.70;8.73;;;;;;;8.51;81.69;98795.94;5042125;28;20081;-82
2021/09/24 01:02:01;;;;;;;15.45;7.97;;;;;;;8.49;81.78;98802.31;5095245;28;20032;-84
2021/09/24 01:04:27;;;;;;;19.73;8.85;;;;;;;8.43;81.67;98798.34;5094212;28;20603;-82
2021/09/24 01:06:53;;;;;;;18.67;8.70;;;;;;;8.50;81.70;98788.13;5047204;28;20130;-80
2021/09/24 01:09:19;;;;;;;16.17;8.38;;;;;;;8.45;81.72;98779.75;5084142;28;20085;-82
2021/09/24 01:11:47;;;;;;;;;;;;;;;8.42;81.64;98776.44;5094911;28;20085;-82
2021/09/24 01:14:13;;;;;;;18.25;8.20;;;;;;;8.42;81.42;98789.59;5075695;28;19920;-79
2021/09/24 01:16:39;;;;;;;21.35;8.63;;;;;;;8.38;81.99;98782.88;5093158;28;20044;-82
2021/09/24 01:19:07;;;;;;;19.20;9.10;;;;;;;8.40;81.94;98782.78;5093036;28;20119;-79
2021/09/24 01:21:34;;;;;;;18.05;7.72;;;;;;;8.40;81.92;98782.78;5058028;28;20036;-79
2021/09/24 01:24:00;;;;;;;18.80;9.02;;;;;;;8.39;82.18;98789.84;5075090;28;20110;-82
2021/09/24 01:26:26;;;;;;;16.80;8.18;;;;;;;8.40;82.17;98783.63;5093102;28;20132;-81
2021/09/24 01:28:56;;;;;;;19.63;8.48;;;;;;;8.38;81.97;98779.44;5075887;28;20093;-78
2021/09/24 01:31:23;;;;;;;19.13;8.70;;;;;;;8.37;82.02;98769.84;5092848;28;20044;-79
2021/09/24 01:33:49;;;;;;;20.13;8.60;;;;;;;8.37;81.89;98775.97;5075436;28;20032;-80
2021/09/24 01:36:16;;;;;;;16.80;7.63;;;;;;;8.37;82.00;98770.72;5058394;28;20040;-83
2021/09/24 01:38:41;;;;;;;17.08;8.00;;;;;;;8.35;81.92;98764.72;5078804;28;20037;-79
2021/09/24 01:41:08;;;;;;;19.77;8.65;;;;;;;8.33;81.88;98764.00;5095613;28;20468;-79
2021/09/24 01:43:35;;;;;;;16.92;7.38;;;;;;;8.35;81.76;98763.88;5046417;28;20486;-79
2021/09/24 01:46:02;;;;;;;14.50;6.93;;;;;;;8.38;82.43;98763.63;5045295;28;20066;-82
2021/09/24 01:48:28;;;;;;;14.30;7.10;;;;;;;8.41;81.79;98763.34;5093084;28;20062;-79
2021/09/24 01:50:54;;;;;;;17.35;7.18;;;;;;;8.39;81.48;98762.66;5096555;28;20461;-79
2021/09/24 01:53:20;;;;;;;18.67;7.50;;;;;;;8.34;81.49;98763.03;5076754;28;20043;-80
2021/09/24 01:55:46;;;;;;;19.10;7.70;;;;;;;8.37;81.47;98761.94;5094064;28;20055;-81
2021/09/24 01:58:12;;;;;;;16.13;6.93;;;;;;;8.35;81.41;98753.31;5093963;28;20032;-79
2021/09/24 02:00:38;;;;;;;15.50;7.32;;;;;;;8.32;81.16;98750.97;5054741;28;20066;-80
2021/09/24 02:03:03;;;;;;;14.02;7.47;;;;;;;8.31;81.21;98749.28;5072398;28;20068;-80
2021/09/24 02:05:29;;;;;;;13.30;7.07;;;;;;;8.29;80.99;98743.28;5071104;28;20036;-80
2021/09/24 02:07:55;;;;;;;13.73;6.65;;;;;;;8.25;80.86;98742.75;5054301;28;20028;-79
2021/09/24 02:10:21;;;;;;;13.02;6.85;;;;;;;8.18;80.74;98745.03;5072380;28;20063;-83
2021/09/24 02:12:47;;;;;;;16.85;6.97;;;;;;;8.16;80.92;98738.22;5072560;28;20514;-79
2021/09/24 02:15:13;;;;;;;12.57;5.95;;;;;;;7.95;80.86;98736.41;5054661;28;20139;-81
2021/09/24 02:17:39;;;;;;;15.13;7.13;;;;;;;7.73;80.67;98737.28;5053809;28;20044;-80
2021/09/24 02:20:06;;;;;;;13.95;7.20;;;;;;;7.59;81.44;98741.84;5038525;28;20032;-79
2021/09/24 02:22:32;;;;;;;13.60;6.40;;;;;;;7.50;82.17;98747.88;5072125;28;20074;-80
2021/09/24 02:24:57;;;;;;;13.23;6.63;;;;;;;7.38;82.45;98740.94;5037379;28;20028;-81
2021/09/24 02:27:23;;;;;;;14.15;6.03;;;;;;;7.29;82.72;98745.13;5053820;28;20036;-80
2021/09/24 02:29:49;;;;;;;13.75;6.53;;;;;;;7.12;83.33;98733.31;5037663;28;20496;-82
2021/09/24 02:32:15;;;;;;;12.65;6.28;;;;;;;7.04;83.67;98740.94;5072674;28;20116;-81
2021/09/24 02:34:41;;;;;;;10.45;5.78;;;;;;;6.97;83.42;98736.16;5070302;28;20132;-79
2021/09/24 02:37:07;;;;;;;15.85;5.88;;;;;;;6.87;84.16;98740.47;5053594;28;20043;-81
2021/09/24 02:39:32;;;;;;;17.23;6.70;;;;;;;6.79;83.79;98732.31;5071507;28;20086;-80
2021/09/24 02:41:58;;;;;;;13.40;6.20;;;;;;;6.73;84.01;98732.78;5072030;28;20049;-80
2021/09/24 02:44:24;;;;;;;13.48;6.32;;;;;;;6.68;84.13;98730.53;5071503;28;20128;-79
2021/09/24 02:46:50;;;;;;;12.77;5.90;;;;;;;6.61;84.78;98740.66;5070514;28;20040;-79
2021/09/24 02:49:16;;;;;;;11.18;5.82;;;;;;;6.53;84.94;98736.94;5057178;28;20043;-83
2021/09/24 02:51:41;;;;;;;10.75;5.65;;;;;;;6.50;85.10;98732.75;5091681;28;20032;-83
2021/09/24 02:54:07;;;;;;;14.20;6.50;;;;;;;6.44;85.51;98733.19;5091937;28;20028;-79
2021/09/24 02:56:33;;;;;;;14.38;6.60;;;;;;;6.39;85.59;98728.31;5091083;28;20040;-83
2021/09/24 02:58:59;;;;;;;12.07;6.85;;;;;;;6.37;85.99;98731.97;5074235;28;20102;-85
2021/09/24 03:01:25;;;;;;;12.70;6.22;;;;;;;6.30;85.85;98727.19;5043006;28;20044;-82
2021/09/24 03:03:51;;;;;;;14.57;6.95;;;;;;;6.29;86.45;98735.19;5040471;28;20056;-81
2021/09/24 03:06:16;;;;;;;13.55;6.47;;;;;;;6.22;86.58;98729.56;5073135;28;20024;-79
2021/09/24 03:08:42;;;;;;;16.30;6.93;;;;;;;6.19;86.38;98729.78;5082149;28;20476;-82
2021/09/24 03:11:08;;;;;;;15.57;7.45;;;;;;;6.19;86.46;98740.28;5053771;28;20033;-81
2021/09/24 03:13:34;;;;;;;15.32;7.60;;;;;;;6.17;86.67;98736.97;5071552;28;20532;-80
2021/09/24 03:16:01;;;;;;;13.10;7.32;;;;;;;6.15;86.64;98730.97;5072571;28;20052;-80
2021/09/24 03:18:28;;;;;;;15.77;7.10;;;;;;;6.14;86.91;98737.16;5071309;28;20044;-79
2021/09/24 03:20:54;;;;;;;14.57;8.32;;;;;;;6.12;86.84;98723.34;5036983;28;20082;-78
2021/09/24 03:23:20;;;;;;;19.70;9.00;;;;;;;6.12;87.58;98723.34;5069267;28;20044;-78
2021/09/24 03:25:47;;;;;;;19.10;10.52;;;;;;;6.12;87.36;98724.16;5071866;28;20052;-80
2021/09/24 03:28:14;;;;;;;86.00;36.17;;;;;;;6.15;87.55;98728.34;5065981;28;20036;-76
2021/09/24 03:30:41;;;;;;;24.98;12.52;;;;;;;6.20;87.21;98728.00;5057878;28;20086;-78
2021/09/24 03:33:06;;;;;;;13.52;7.53;;;;;;;6.23;87.13;98725.16;5094628;28;20055;-77
2021/09/24 03:35:32;;;;;;;17.75;7.22;;;;;;;6.23;86.75;98731.25;5094170;28;20384;-77
2021/09/24 03:37:58;;;;;;;16.35;7.00;;;;;;;6.25;86.54;98734.56;5094538;28;20039;-77
2021/09/24 03:40:24;;;;;;;14.93;7.50;;;;;;;6.29;86.09;98736.03;5094287;28;20042;-79
2021/09/24 03:42:50;;;;;;;20.60;7.15;;;;;;;6.34;85.97;98738.31;5094552;28;20123;-80
2021/09/24 03:45:16;;;;;;;15.30;6.70;;;;;;;6.35;84.72;98729.47;5094136;28;20036;-79
2021/09/24 03:47:42;;;;;;;13.25;6.75;;;;;;;6.45;84.06;98732.25;5093730;28;20374;-78
2021/09/24 03:50:08;;;;;;;10.35;6.68;;;;;;;6.54;83.51;98733.34;5084112;28;20032;-80
2021/09/24 03:52:35;;;;;;;11.07;5.72;;;;;;;6.63;83.41;98723.00;5068354;28;20036;-80
2021/09/24 03:55:02;;;;;;;13.60;5.95;;;;;;;6.67;82.78;98725.38;5074008;28;20157;-77
2021/09/24 03:57:28;;;;;;;12.67;6.40;;;;;;;6.70;82.32;98722.53;5077370;28;20131;-81
2021/09/24 03:59:54;;;;;;;10.38;5.90;;;;;;;6.75;82.01;98728.25;5067052;28;20370;-81
2021/09/24 04:02:20;;;;;;;11.75;6.15;;;;;;;6.85;81.63;98723.13;5064241;28;20058;-79
2021/09/24 04:04:45;;;;;;;11.75;6.60;;;;;;;6.91;81.38;98715.59;5056655;28;20032;-78
2021/09/24 04:07:11;;;;;;;25.77;7.22;;;;;;;6.95;80.79;98713.56;5056581;28;20101;-78
2021/09/24 04:09:37;;;;;;;12.38;6.65;;;;;;;7.06;80.96;98718.00;5084391;28;20062;-81
2021/09/24 04:12:04;;;;;;;16.60;7.00;;;;;;;7.12;80.44;98709.63;5076460;28;20142;-81
2021/09/24 04:14:30;;;;;;;22.33;6.80;;;;;;;7.11;79.93;98707.97;5094009;28;20532;-80
2021/09/24 04:16:56;;;;;;;14.98;7.60;;;;;;;7.20;80.04;98704.63;5077449;28;20078;-78
2021/09/24 04:19:22;;;;;;;14.70;8.20;;;;;;;7.22;79.20;98707.94;5109389;28;20039;-82
2021/09/24 04:21:49;;;;;;;14.00;7.32;;;;;;;7.20;79.65;98694.09;5098071;28;20060;-79
2021/09/24 04:24:15;;;;;;;16.15;6.95;;;;;;;7.23;79.68;98699.09;5115239;28;20089;-79
2021/09/24 04:26:40;;;;;;;21.90;8.70;;;;;;;7.24;79.29;98690.25;5114910;28;20038;-84
2021/09/24 04:29:10;;;;;;;19.15;7.93;;;;;;;7.31;79.72;98700.28;5077331;28;20036;-79
2021/09/24 04:31:36;;;;;;;25.02;8.90;;;;;;;7.33;80.03;98698.34;5095696;28;20047;-80
2021/09/24 04:34:02;;;;;;;19.38;7.63;;;;;;;7.24;79.97;98695.53;5096990;28;20040;-83
2021/09/24 04:36:28;;;;;;;21.75;8.68;;;;;;;7.31;80.18;98708.19;5078420;28;20032;-80
2021/09/24 04:38:55;;;;;;;21.98;8.35;;;;;;;7.33;80.10;98707.09;5059508;28;20040;-80
2021/09/24 04:41:22;;;;;;;17.47;7.90;;;;;;;7.33;80.29;98703.63;5094601;28;20379;-80
2021/09/24 04:43:47;;;;;;;31.15;7.90;;;;;;;7.39;80.22;98700.50;5096054;28;20050;-84
2021/09/24 04:46:13;;;;;;;19.23;7.60;;;;;;;7.41;79.86;98701.22;5047872;28;20461;-79
2021/09/24 04:48:39;;;;;;;18.77;6.93;;;;;;;7.54;79.38;98701.94;5078247;28;20114;-83
2021/09/24 04:51:05;;;;;;;18.73;7.75;;;;;;;7.66;79.23;98704.53;5078551;28;20052;-79
2021/09/24 04:53:31;;;;;;;16.60;6.57;;;;;;;7.61;78.38;98703.09;5078239;28;20035;-83
2021/09/24 04:55:57;;;;;;;38.92;15.48;;;;;;;7.67;78.35;98700.94;5082228;28;20044;-80
2021/09/24 04:58:22;;;;;;;27.85;9.88;;;;;;;7.82;78.19;98704.94;5063661;28;20385;-81
2021/09/24 05:00:50;;;;;;;16.92;6.43;;;;;;;7.97;77.92;98700.22;5067009;28;20036;-82
2021/09/24 05:03:16;;;;;;;17.80;6.85;;;;;;;8.02;77.59;98707.75;5067413;28;20039;-79
2021/09/24 05:05:41;;;;;;;15.25;6.57;;;;;;;8.00;77.71;98701.75;5099609;28;20048;-78
2021/09/24 05:08:07;;;;;;;13.95;6.22;;;;;;;8.01;77.13;98713.97;5082417;28;20052;-78
2021/09/24 05:10:33;;;;;;;13.48;5.85;;;;;;;8.04;76.87;98705.84;5096420;28;20089;-79
2021/09/24 05:12:59;;;;;;;19.50;6.70;;;;;;;8.01;77.38;98703.44;5079292;28;20032;-80
2021/09/24 05:15:27;;;;;;;14.98;6.28;;;;;;;7.93;76.97;98702.28;5097503;28;20447;-82
2021/09/24 05:17:53;;;;;;;16.42;6.13;;;;;;;8.08;77.26;98702.81;5096034;28;20036;-80
2021/09/24 05:20:19;;;;;;;21.55;6.25;;;;;;;8.18;76.50;98694.97;5098030;28;20036;-82
2021/09/24 05:22:44;;;;;;;17.33;6.72;;;;;;;8.30;76.21;98698.41;5044831;28;20032;-80
2021/09/24 05:25:11;;;;;;;19.77;5.38;;;;;;;8.37;75.48;98682.91;5096355;28;20032;-79
2021/09/24 05:27:37;;;;;;;12.57;6.07;;;;;;;8.40;75.38;98680.03;5060208;28;20062;-84
2021/09/24 05:30:05;;;;;;;16.38;6.38;;;;;;;8.47;75.62;98689.09;5077675;28;20044;-80
2021/09/24 05:32:31;;;;;;;17.08;6.70;;;;;;;8.43;75.14;98677.13;5094313;28;20112;-79
2021/09/24 05:34:57;;;;;;;22.52;6.10;;;;;;;8.53;75.09;98677.22;5076914;28;20071;-81
2021/09/24 05:37:23;;;;;;;21.25;6.57;;;;;;;8.60;74.88;98680.16;5043626;28;20140;-87
2021/09/24 05:39:49;;;;;;;14.38;6.38;;;;;;;8.61;74.66;98687.97;5076837;28;20059;-81
2021/09/24 05:42:15;;;;;;;15.90;6.57;;;;;;;8.49;74.37;98679.28;5093632;28;20526;-86
2021/09/24 05:44:41;;;;;;;20.58;6.78;;;;;;;8.62;74.29;98681.69;5094009;28;20089;-80
2021/09/24 05:47:07;;;;;;;17.23;6.45;;;;;;;8.58;74.00;98683.78;5076842;28;20036;-80
2021/09/24 05:49:33;;;;;;;13.88;5.95;;;;;;;8.53;74.12;98678.03;5095381;28;20042;-81
2021/09/24 05:51:59;;;;;;;18.02;5.10;;;;;;;8.72;73.88;98679.09;5076383;28;20420;-80
2021/09/24 05:54:26;;;;;;;15.57;5.90;;;;;;;8.70;73.78;98666.06;5077047;28;20043;-82
2021/09/24 05:56:54;;;;;;;16.60;5.28;;;;;;;8.73;73.31;98664.97;5060626;28;20040;-79
2021/09/24 05:59:20;;;;;;;13.82;5.57;;;;;;;8.90;73.00;98663.53;5093468;28;20436;-81
2021/09/24 06:01:48;;;;;;;16.20;4.82;;;;;;;8.90;72.76;98659.06;5094267;28;20415;-82
2021/09/24 06:04:15;;;;;;;18.58;5.57;;;;;;;8.96;72.50;98662.13;5041630;28;20047;-81
2021/09/24 06:06:41;;;;;;;12.30;5.30;;;;;;;8.88;72.37;98668.94;5076534;28;20036;-85
2021/09/24 06:09:07;;;;;;;11.63;5.70;;;;;;;8.90;72.42;98664.34;5094987;28;20043;-77
2021/09/24 06:11:33;;;;;;;11.40;5.30;;;;;;;8.83;72.47;98659.75;5092646;28;20040;-82
2021/09/24 06:13:58;;;;;;;14.80;5.07;;;;;;;8.97;72.19;98653.25;5090344;28;20454;-81
2021/09/24 06:16:24;;;;;;;13.98;5.82;;;;;;;9.01;71.68;98652.03;5073303;28;20079;-85
2021/09/24 06:18:51;;;;;;;13.50;6.25;;;;;;;9.24;71.38;98655.28;5040346;28;20052;-81
2021/09/24 06:21:23;;;;;;;12.00;5.70;;;;;;;9.21;70.78;98651.13;5071680;28;20529;-80
2021/09/24 06:23:49;;;;;;;;;;;;;;;9.55;69.96;98661.31;5071475;28;20079;-77
2021/09/24 06:26:15;;;;;;;13.88;5.20;;;;;;;9.70;69.34;98642.44;5074030;28;20322;-87
2021/09/24 06:28:41;;;;;;;14.10;6.25;;;;;;;9.97;68.30;98643.53;5072415;28;20040;-83
2021/09/24 06:31:07;;;;;;;11.63;5.03;;;;;;;10.33;67.83;98633.19;5073589;28;20367;-81
2021/09/24 06:33:33;;;;;;;9.73;4.68;;;;;;;10.49;66.78;98643.22;5072988;28;20075;-82
2021/09/24 06:35:59;;;;;;;12.60;5.22;;;;;;;10.28;67.35;98635.44;5055681;28;20516;-80
2021/09/24 06:38:25;;;;;;;8.50;4.53;;;;;;;10.41;67.23;98638.63;5072553;28;20068;-82
2021/09/24 06:40:51;;;;;;;10.93;5.18;;;;;;;10.41;67.09;98632.53;5058048;28;20040;-81
2021/09/24 06:43:17;;;;;;;10.23;4.88;;;;;;;10.71;66.78;98646.50;5055857;28;20492;-84
2021/09/24 06:45:43;;;;;;;11.50;4.82;;;;;;;10.57;65.95;98650.44;5027483;28;20047;-81
2021/09/24 06:48:09;;;;;;;8.73;4.93;;;;;;;10.48;66.27;98630.97;5061557;28;20036;-84
2021/09/24 06:50:36;;;;;;;9.85;4.30;;;;;;;10.27;67.16;98641.69;5025994;28;20139;-83
2021/09/24 06:53:02;;;;;;;7.50;4.50;;;;;;;10.18;66.95;98638.09;5073370;28;20041;-85
2021/09/24 06:55:30;;;;;;;11.75;5.30;;;;;;;9.81;68.35;98642.31;5055687;28;20036;-83
2021/09/24 06:57:57;;;;;;;10.68;5.70;;;;;;;9.72;68.60;98645.78;5089379;28;20040;-78
2021/09/24 07:00:52;;;;;;;22.17;6.65;;;;;;;9.70;68.63;98639.81;5046167;28;20505;-78
2021/09/24 07:03:38;;;;;;;11.93;5.53;;;;;;;9.68;68.95;98641.72;5081960;28;20074;-85
2021/09/24 07:06:04;;;;;;;10.95;5.53;;;;;;;9.58;69.23;98646.19;5076318;28;20469;-78
2021/09/24 07:08:30;;;;;;;10.45;5.95;;;;;;;9.46;69.01;98635.75;5027139;28;20048;-81
2021/09/24 07:10:56;;;;;;;18.38;6.60;;;;;;;9.41;70.12;98637.13;5076101;28;20036;-82
2021/09/24 07:13:22;;;;;;;12.30;6.13;;;;;;;9.51;69.82;98635.34;5060594;28;20427;-80
2021/09/24 07:15:48;;;;;;;10.93;5.90;;;;;;;9.37;70.32;98639.19;5059414;28;20044;-80
2021/09/24 07:18:14;;;;;;;12.93;6.45;;;;;;;9.19;70.72;98634.59;5077857;28;20082;-79
2021/09/24 07:20:40;;;;;;;14.23;6.88;;;;;;;9.13;71.24;98635.13;5076957;28;20059;-82
2021/09/24 07:23:05;;;;;;;14.48;7.95;;;;;;;9.07;71.68;98625.97;5030598;28;20381;-80
2021/09/24 07:25:34;;;;;;;13.57;6.47;;;;;;;9.06;71.91;98628.75;5093806;28;20040;-81
2021/09/24 07:28:00;;;;;;;15.95;6.85;;;;;;;9.09;71.69;98632.91;5093626;28;20059;-83
2021/09/24 07:30:26;;;;;;;19.15;7.97;;;;;;;9.01;72.01;98633.56;5077973;28;20438;-79
2021/09/24 07:32:52;;;;;;;15.48;6.60;;;;;;;9.01;72.26;98633.56;5077801;28;20096;-81
2021/09/24 07:35:20;;;;;;;22.17;7.55;;;;;;;9.07;72.25;98622.47;5078656;28;20032;-81
2021/09/24 07:37:46;;;;;;;;;;;;;;;9.15;72.25;98620.00;5078145;28;20036;-81
2021/09/24 07:40:14;;;;;;;12.98;6.85;;;;;;;9.13;72.06;98621.94;5078282;28;20038;-79
2021/09/24 07:42:39;;;;;;;11.95;6.35;;;;;;;9.17;72.05;98623.34;5077797;28;20424;-80
2021/09/24 07:45:06;;;;;;;12.25;6.03;;;;;;;9.21;72.17;98614.19;5078919;28;20086;-82
2021/09/24 07:47:33;;;;;;;14.10;6.53;;;;;;;9.18;72.38;98614.47;5031366;28;20170;-85
2021/09/24 07:49:59;;;;;;;14.48;7.70;;;;;;;9.34;72.02;98608.63;5060716;28;20048;-82
2021/09/24 07:52:25;;;;;;;12.60;5.93;;;;;;;9.43;71.45;98606.97;5075881;28;20032;-81
2021/09/24 07:54:51;;;;;;;17.08;7.53;;;;;;;9.48;71.30;98603.94;5076468;28;20106;-83
2021/09/24 07:57:17;;;;;;;15.90;7.38;;;;;;;9.40;71.49;98612.56;5061177;28;20100;-84
2021/09/24 07:59:43;;;;;;;17.83;7.60;;;;;;;9.51;71.32;98609.78;5078287;28;20059;-83
2021/09/24 08:02:09;;;;;;;16.63;7.70;;;;;;;9.62;71.25;98610.59;5077125;28;20461;-84
2021/09/24 08:04:38;;;;;;;18.20;8.63;;;;;;;9.79;70.98;98601.97;5041945;28;20090;-82
2021/09/24 08:07:06;;;;;;;13.43;6.47;;;;;;;9.89;70.36;98601.97;5077415;28;20037;-84
2021/09/24 08:09:32;;;;;;;13.65;5.88;;;;;;;9.86;69.60;98605.75;5077403;28;20043;-82
2021/09/24 08:11:58;;;;;;;11.32;6.53;;;;;;;9.97;69.39;98601.28;5043143;28;20041;-84
2021/09/24 08:14:24;;;;;;;13.90;6.53;;;;;;;10.15;69.62;98593.47;5077888;28;20477;-82
2021/09/24 08:16:50;;;;;;;58.60;26.83;;;;;;;9.98;68.75;98601.16;5076266;28;20032;-82
2021/09/24 08:19:19;;;;;;;9.75;5.45;;;;;;;9.97;69.26;98598.63;5076637;28;20465;-82
2021/09/24 08:21:44;;;;;;;10.70;6.38;;;;;;;9.93;69.54;98595.47;5076357;28;20032;-82
2021/09/24 08:24:10;;;;;;;14.23;5.93;;;;;;;9.96;69.58;98591.72;5075859;28;20476;-83
2021/09/24 08:26:36;;;;;;;16.20;6.57;;;;;;;9.94;70.58;98599.75;5026184;28;20058;-82
2021/09/24 08:29:02;;;;;;;10.80;5.80;;;;;;;9.73;70.08;98591.16;5040593;28;20036;-81
2021/09/24 08:31:29;;;;;;;10.75;5.57;;;;;;;9.62;70.05;98590.34;5057564;28;20048;-83
2021/09/24 08:33:59;;;;;;;14.45;6.05;;;;;;;9.60;70.14;98594.09;5075170;28;20181;-85
2021/09/24 08:36:25;;;;;;;12.80;7.18;;;;;;;9.64;70.55;98587.56;5042964;28;20143;-82
2021/09/24 08:38:52;;;;;;;9.85;6.22;;;;;;;9.63;71.06;98591.16;5060716;28;20418;-81
2021/09/24 08:41:20;;;;;;;10.52;5.88;;;;;;;9.77;70.71;98588.09;5057922;28;20117;-82
2021/09/24 08:43:47;;;;;;;;;;;;;;;9.92;71.06;98579.72;5074457;28;20101;-83
2021/09/24 08:46:15;;;;;;;12.75;6.30;;;;;;;9.83;70.97;98582.28;5075205;28;19916;-80
2021/09/24 08:48:42;;;;;;;14.02;6.57;;;;;;;9.79;71.00;98580.84;5075378;28;20327;-81
2021/09/24 08:51:08;;;;;;;17.25;7.68;;;;;;;9.68;71.84;98583.66;5075874;28;20043;-81
2021/09/24 08:53:36;;;;;;;18.35;7.40;;;;;;;9.54;71.65;98572.56;5092025;28;20139;-85
2021/09/24 08:56:03;;;;;;;11.55;6.30;;;;;;;9.45;71.80;98573.38;5058066;28;20036;-82
2021/09/24 08:58:29;;;;;;;19.75;7.38;;;;;;;9.41;72.24;98572.00;5057976;28;20477;-81
2021/09/24 09:00:58;;;;;;;11.93;6.20;;;;;;;9.33;73.30;98579.75;5075342;28;20048;-81
2021/09/24 09:03:24;;;;;;;12.05;6.35;;;;;;;9.36;73.76;98564.50;5093481;28;20064;-81
2021/09/24 09:05:52;;;;;;;14.80;6.72;;;;;;;9.36;74.00;98566.31;5092643;28;20373;-81
2021/09/24 09:08:20;;;;;;;14.02;7.88;;;;;;;9.25;74.35;98571.72;5044653;28;20033;-81
2021/09/24 09:10:49;;;;;;;17.45;9.13;;;;;;;9.47;74.20;98560.88;5079169;28;20127;-82
2021/09/24 09:13:17;;;;;;;17.15;8.35;;;;;;;10.09;73.01;98560.50;5054785;28;20044;-79
2021/09/24 09:15:54;;;;;;;22.35;10.07;;;;;;;10.43;71.37;98557.41;5089389;28;20040;-78
2021/09/24 09:18:20;;;;;;;17.63;8.68;;;;;;;10.68;70.32;98560.34;5081588;28;20055;-81
2021/09/24 09:20:48;;;;;;;17.05;8.90;;;;;;;10.63;70.50;98557.28;5080309;28;20039;-81
2021/09/24 09:23:14;;;;;;;19.10;9.75;;;;;;;10.68;70.12;98555.06;5044215;28;20028;-80
2021/09/24 09:25:43;;;;;;;18.10;9.13;;;;;;;10.83;70.60;98542.19;5061413;28;20123;-82
2021/09/24 09:28:14;;;;;;;18.65;8.25;;;;;;;11.02;69.12;98541.22;5078349;28;20571;-85
2021/09/24 09:30:42;;;;;;;15.40;6.93;;;;;;;11.11;68.08;98540.31;5046064;28;20038;-84
2021/09/24 09:33:14;;;;;;;14.32;7.55;;;;;;;11.01;68.82;98536.91;5063502;28;20038;-80
2021/09/24 09:35:51;;;;;;;15.05;6.55;;;;;;;11.18;68.79;98537.91;5062772;28;20122;-83
2021/09/24 09:38:25;;;;;;;11.30;6.07;;;;;;;11.15;67.84;98531.09;5061850;28;20044;-81
2021/09/24 09:40:57;;;;;;;11.30;5.30;;;;;;;11.08;67.21;98548.56;5078320;28;20101;-81
2021/09/24 09:43:32;;;;;;;7.65;4.43;;;;;;;11.10;67.69;98543.09;5098123;28;20127;-81
2021/09/24 09:46:05;;;;;;;6.65;3.92;;;;;;;11.41;65.76;98546.22;5096576;28;20069;-84
2021/09/24 09:48:32;;;;;;;6.43;3.80;;;;;;;12.53;61.46;98537.72;5082275;28;20473;-80
2021/09/24 09:50:58;;;;;;;6.28;3.83;;;;;;;12.70;60.05;98531.50;5045304;28;20032;-81
2021/09/24 09:53:24;;;;;;;6.82;3.03;;;;;;;12.89;59.94;98530.38;5044038;28;20078;-83
2021/09/24 09:56:00;;;;;;;5.68;2.60;;;;;;;12.63;58.74;98538.41;5046682;28;20518;-83
2021/09/24 09:58:33;;;;;;;7.20;3.05;;;;;;;11.74;60.13;98529.75;5028820;28;20058;-84
2021/09/24 10:01:05;;;;;;;6.22;2.65;;;;;;;11.34;61.77;98537.25;5079211;28;20455;-81
2021/09/24 10:03:36;;;;;;;5.35;3.08;;;;;;;11.19;61.85;98533.44;5038923;28;20060;-78
2021/09/24 10:06:04;;;;;;;4.97;2.88;;;;;;;10.88;61.43;98569.00;5075908;28;20531;-82
2021/09/24 10:08:39;;;;;;;6.93;3.30;;;;;;;10.91;61.25;98541.44;5028716;28;20372;-88
2021/09/24 10:11:08;;;;;;;8.27;3.22;;;;;;;10.86;60.69;98541.03;5060926;28;20087;-82
2021/09/24 10:13:50;;;;;;;8.18;2.92;;;;;;;11.02;60.91;98529.81;5093399;28;20071;-81
2021/09/24 10:16:21;;;;;;;7.00;2.60;;;;;;;10.80;60.59;98540.66;5059744;28;20468;-85
2021/09/24 10:18:47;;;;;;;7.28;3.25;;;;;;;10.82;59.58;98543.16;5020338;28;20049;-81
2021/09/24 10:21:13;;;;;;;5.13;2.55;;;;;;;10.77;60.16;98542.78;5033925;28;20184;-85
2021/09/24 10:23:43;;;;;;;4.32;2.78;;;;;;;10.78;59.71;98555.84;5003430;28;20038;-82
2021/09/24 10:26:22;;;;;;;4.55;2.60;;;;;;;10.66;59.65;98551.72;5001343;28;20041;-82
2021/09/24 10:28:49;;;;;;;5.93;3.13;;;;;;;10.73;59.67;98544.88;4999930;28;20112;-83
2021/09/24 10:31:17;;;;;;;7.70;2.83;;;;;;;10.61;60.10;98551.34;4982558;28;20052;-79
2021/09/24 10:33:46;;;;;;;5.60;3.65;;;;;;;10.65;60.42;98544.75;4982224;28;20135;-80
2021/09/24 10:36:31;;;;;;;6.25;3.30;;;;;;;10.53;61.21;98557.34;5015324;28;20104;-84
2021/09/24 10:38:57;;;;;;;9.52;3.75;;;;;;;10.41;61.49;98554.06;5032255;28;20095;-81
2021/09/24 10:41:23;;;;;;;5.90;3.22;;;;;;;10.36;61.82;98551.84;5018978;28;20037;-83
2021/09/24 10:43:51;;;;;;;5.05;3.05;;;;;;;10.39;61.98;98556.00;5020098;28;20034;-81
2021/09/24 10:46:37;;;;;;;;;;;;;;;10.39;62.26;98545.44;5005791;28;20117;-79
2021/09/24 10:49:28;;;;;;;13.40;6.25;;;;;;;10.38;62.52;98553.50;5033177;28;19912;-81
2021/09/24 10:51:57;;;;;;;5.90;4.03;;;;;;;10.36;63.07;98546.56;5067239;28;20043;-84
2021/09/24 10:54:25;;;;;;;8.38;4.20;;;;;;;10.32;63.23;98545.16;5048019;28;20044;-84
2021/09/24 10:57:05;;;;;;;8.63;4.45;;;;;;;10.41;63.24;98551.41;5064753;28;20050;-82
2021/09/24 10:59:33;;;;;;;9.48;4.85;;;;;;;10.30;62.44;98541.00;5080124;28;20465;-82
2021/09/24 11:02:39;;;;;;;8.80;4.78;;;;;;;10.32;62.34;98549.63;5062864;28;20031;-82
2021/09/24 11:05:07;;;;;;;11.43;5.25;;;;;;;10.45;62.20;98544.84;5030260;28;20043;-81
2021/09/24 11:07:33;;;;;;;8.88;3.95;;;;;;;10.36;62.10;98540.44;5049014;28;20043;-84
2021/09/24 11:10:00;;;;;;;11.10;3.90;;;;;;;10.41;61.38;98538.19;5048008;28;20362;-84
2021/09/24 11:12:26;;;;;;;6.40;3.30;;;;;;;10.52;61.20;98538.00;5099000;28;20036;-85
2021/09/24 11:15:18;;;;;;;10.52;3.88;;;;;;;10.61;61.17;98538.13;5081565;28;20098;-82
2021/09/24 11:17:46;;;;;;;8.50;4.72;;;;;;;10.77;60.61;98519.78;5077297;28;20052;-83
2021/09/24 11:20:37;;;;;;;10.10;3.67;;;;;;;11.00;60.09;98532.59;5045931;28;20364;-84
2021/09/24 11:23:31;;;;;;;8.50;3.92;;;;;;;11.12;59.54;98531.38;5080708;28;20131;-82
2021/09/24 11:26:14;;;;;;;8.52;4.00;;;;;;;11.28;58.78;98521.97;5097247;28;20519;-82
2021/09/24 11:28:43;;;;;;;11.05;3.85;;;;;;;11.27;58.63;98522.94;5062166;28;20096;-80
2021/09/24 11:31:13;;;;;;;9.88;3.50;;;;;;;11.24;58.32;98523.22;5062928;28;20031;-79
2021/09/24 11:33:45;;;;;;;8.02;3.92;;;;;;;11.15;58.11;98519.66;5064035;28;20036;-83
2021/09/24 11:36:53;;;;;;;9.70;4.55;;;;;;;11.31;58.13;98524.28;5099020;28;20032;-84